createdAt,value
2023-03-06T00:00:25.240Z,89.28
2023-03-06T00:02:52.427Z,90.97
2023-03-06T00:05:19.325Z,90.59
2023-03-06T00:07:45.789Z,90.48
2023-03-06T00:10:18.022Z,89.28
2023-03-06T00:12:44.593Z,88.47
2023-03-06T00:15:12.395Z,88.92
2023-03-06T00:17:39.551Z,89.05
2023-03-06T00:20:07.180Z,89.43
2023-03-06T00:22:33.732Z,91.15
2023-03-06T00:25:00.245Z,91.86
2023-03-06T00:27:26.727Z,92.64
2023-03-06T00:29:57.673Z,92.90
2023-03-06T00:32:24.789Z,92.66
2023-03-06T00:34:52.375Z,93.12
2023-03-06T00:37:19.518Z,93.75
2023-03-06T00:39:46.605Z,93.30
2023-03-06T00:42:13.372Z,93.48
2023-03-06T00:44:39.841Z,93.99
2023-03-06T00:47:06.520Z,92.16
2023-03-06T00:49:33.203Z,90.60
2023-03-06T00:51:59.864Z,90.22
2023-03-06T00:54:26.432Z,90.45
2023-03-06T00:56:52.997Z,91.89
2023-03-06T00:59:19.664Z,92.77
2023-03-06T01:01:46.748Z,92.82
2023-03-06T01:04:14.508Z,91.73
2023-03-06T01:06:41.119Z,91.44
2023-03-06T01:09:07.644Z,90.80
2023-03-06T01:11:34.175Z,89.63
2023-03-06T01:14:00.800Z,87.65
2023-03-06T01:16:27.325Z,89.49
2023-03-06T01:18:53.846Z,90.39
2023-03-06T01:21:20.454Z,90.44
2023-03-06T01:23:47.478Z,90.73
2023-03-06T01:26:14.351Z,92.14
2023-03-06T01:28:40.960Z,92.50
2023-03-06T01:31:09.091Z,94.38
2023-03-06T01:33:36.443Z,94.20
2023-03-06T01:36:08.669Z,93.81
2023-03-06T01:38:36.092Z,93.82
2023-03-06T01:41:03.885Z,93.39
2023-03-06T01:43:39.039Z,90.99
2023-03-06T01:46:32.625Z,92.67
2023-03-06T01:49:23.932Z,95.07
2023-03-06T01:52:08.946Z,98.38
2023-03-06T01:54:40.731Z,100.00
2023-03-06T01:57:11.718Z,98.77
2023-03-06T01:59:40.368Z,96.78
2023-03-06T02:02:09.508Z,95.42
2023-03-06T02:04:39.575Z,97.45
2023-03-06T02:07:07.487Z,98.59
2023-03-06T02:09:35.582Z,97.30
2023-03-06T02:12:06.254Z,96.14
2023-03-06T02:14:33.793Z,95.20
2023-03-06T02:17:00.636Z,96.72
2023-03-06T02:20:12.489Z,97.42
2023-03-06T02:22:58.391Z,96.54
2023-03-06T02:25:37.249Z,94.23
2023-03-06T02:28:06.719Z,96.38
2023-03-06T02:30:33.710Z,98.28
2023-03-06T02:33:01.184Z,98.71
2023-03-06T02:35:33.664Z,99.79
2023-03-06T02:38:08.540Z,99.77
2023-03-06T02:40:35.251Z,99.15
2023-03-06T02:43:01.807Z,99.43
2023-03-06T02:45:34.990Z,100.00
2023-03-06T02:48:02.002Z,99.93
2023-03-06T02:50:29.810Z,100.00
2023-03-06T02:52:56.580Z,100.00
2023-03-06T02:55:23.458Z,100.00
2023-03-06T02:57:50.251Z,100.00
2023-03-06T03:00:17.788Z,100.00
2023-03-06T03:02:44.762Z,100.00
2023-03-06T03:05:11.389Z,98.60
2023-03-06T03:07:41.579Z,97.43
2023-03-06T03:10:09.526Z,98.49
2023-03-06T03:12:36.113Z,99.26
2023-03-06T03:15:03.746Z,100.00
2023-03-06T03:17:30.249Z,100.00
2023-03-06T03:19:56.795Z,100.00
2023-03-06T03:22:24.126Z,100.00
2023-03-06T03:24:50.576Z,100.00
2023-03-06T03:27:17.183Z,100.00
2023-03-06T03:29:43.749Z,99.33
2023-03-06T03:32:10.702Z,100.00
2023-03-06T03:34:37.304Z,99.52
2023-03-06T03:37:04.348Z,99.52
2023-03-06T03:39:30.890Z,99.21
2023-03-06T03:41:57.443Z,98.52
2023-03-06T03:44:24.037Z,97.63
2023-03-06T03:46:50.576Z,98.70
2023-03-06T03:49:20.995Z,98.91
2023-03-06T03:51:47.927Z,99.12
2023-03-06T03:54:14.710Z,97.50
2023-03-06T03:56:45.063Z,97.51
2023-03-06T03:59:25.358Z,98.07
2023-03-06T04:02:18.295Z,99.40
2023-03-06T04:04:52.968Z,98.42
2023-03-06T04:07:19.541Z,98.89
2023-03-06T04:09:46.356Z,97.19
2023-03-06T04:12:13.061Z,96.30
2023-03-06T04:14:39.627Z,94.84
2023-03-06T04:17:06.384Z,95.46
2023-03-06T04:19:33.172Z,95.27
2023-03-06T04:22:02.240Z,93.82
2023-03-06T04:24:30.809Z,91.60
2023-03-06T04:26:57.665Z,92.10
2023-03-06T04:29:24.497Z,95.49
2023-03-06T04:31:51.056Z,97.28
2023-03-06T04:34:17.568Z,98.21
2023-03-06T04:36:45.309Z,97.97
2023-03-06T04:39:13.876Z,96.88
2023-03-06T04:41:41.382Z,96.96
2023-03-06T04:44:08.743Z,95.96
2023-03-06T04:46:35.873Z,95.00
2023-03-06T04:49:02.813Z,94.79
2023-03-06T04:51:29.615Z,93.97
2023-03-06T04:53:56.209Z,95.97
2023-03-06T04:56:23.270Z,97.83
2023-03-06T04:58:49.870Z,98.74
2023-03-06T05:01:16.484Z,99.19
2023-03-06T05:03:43.051Z,97.03
2023-03-06T05:06:09.666Z,96.72
2023-03-06T05:08:36.443Z,96.32
2023-03-06T05:11:03.080Z,96.78
2023-03-06T05:13:29.641Z,97.96
2023-03-06T05:16:01.800Z,97.98
2023-03-06T05:18:28.300Z,99.07
2023-03-06T05:20:59.392Z,99.38
2023-03-06T05:23:30.660Z,100.00
2023-03-06T05:25:57.897Z,100.00
2023-03-06T05:28:25.871Z,100.00
2023-03-06T05:30:52.612Z,100.00
2023-03-06T05:33:19.111Z,100.00
2023-03-06T05:35:49.527Z,100.00
2023-03-06T05:38:17.653Z,99.55
2023-03-06T05:40:44.703Z,99.08
2023-03-06T05:43:12.001Z,97.75
2023-03-06T05:45:39.694Z,97.78
2023-03-06T05:48:07.056Z,95.94
2023-03-06T05:50:33.653Z,94.14
2023-03-06T05:53:00.766Z,94.93
2023-03-06T05:55:27.249Z,94.58
2023-03-06T05:57:54.106Z,93.24
2023-03-06T06:00:21.668Z,91.88
2023-03-06T06:02:48.816Z,91.17
2023-03-06T06:05:15.412Z,91.07
2023-03-06T06:07:42.436Z,90.83
2023-03-06T06:10:10.864Z,90.68
2023-03-06T06:12:37.791Z,89.72
2023-03-06T06:15:04.981Z,89.46
2023-03-06T06:17:31.493Z,87.33
2023-03-06T06:19:58.050Z,87.37
2023-03-06T06:22:24.575Z,86.83
2023-03-06T06:24:51.100Z,86.07
2023-03-06T06:27:17.590Z,86.03
2023-03-06T06:29:44.114Z,85.58
2023-03-06T06:32:10.677Z,85.34
2023-03-06T06:34:37.174Z,85.42
2023-03-06T06:37:03.759Z,85.98
2023-03-06T06:39:30.462Z,85.92
2023-03-06T06:42:14.711Z,85.27
2023-03-06T06:44:44.070Z,85.45
2023-03-06T06:47:26.380Z,85.43
2023-03-06T06:49:54.604Z,84.67
2023-03-06T06:52:22.302Z,84.69
2023-03-06T06:54:49.027Z,84.83
2023-03-06T06:57:15.971Z,83.34
2023-03-06T06:59:42.566Z,83.19
2023-03-06T07:02:12.473Z,83.62
2023-03-06T07:04:44.333Z,83.83
2023-03-06T07:07:15.926Z,84.08
2023-03-06T07:09:42.548Z,83.10
2023-03-06T07:12:09.287Z,82.68
2023-03-06T07:14:35.936Z,83.20
2023-03-06T07:17:02.500Z,85.03
2023-03-06T07:19:28.975Z,84.50
2023-03-06T07:21:55.509Z,83.42
2023-03-06T07:24:22.010Z,84.14
2023-03-06T07:26:48.619Z,83.82
2023-03-06T07:29:15.560Z,84.14
2023-03-06T07:31:42.536Z,84.51
2023-03-06T07:34:13.009Z,84.56
2023-03-06T07:36:40.400Z,84.97
2023-03-06T07:39:09.927Z,85.38
2023-03-06T07:41:36.585Z,86.11
2023-03-06T07:44:03.329Z,85.06
2023-03-06T07:46:29.904Z,84.78
2023-03-06T07:48:56.513Z,85.40
2023-03-06T07:51:23.058Z,85.04
2023-03-06T07:53:49.838Z,85.69
2023-03-06T07:56:16.729Z,85.60
2023-03-06T07:58:45.552Z,85.83
2023-03-06T08:01:18.253Z,83.52
2023-03-06T08:03:44.791Z,84.39
2023-03-06T08:06:20.258Z,85.47
2023-03-06T08:08:47.868Z,86.49
2023-03-06T08:11:16.397Z,86.09
2023-03-06T08:13:43.917Z,85.37
2023-03-06T08:16:11.278Z,85.49
2023-03-06T08:18:39.779Z,86.78
2023-03-06T08:21:13.303Z,86.17
2023-03-06T08:23:40.328Z,86.51
2023-03-06T08:26:10.523Z,86.64
2023-03-06T08:28:37.012Z,86.82
2023-03-06T08:31:12.755Z,87.52
2023-03-06T08:33:40.614Z,87.20
2023-03-06T08:36:07.524Z,87.19
2023-03-06T08:38:33.974Z,87.28
2023-03-06T08:41:00.490Z,86.31
2023-03-06T08:43:27.143Z,86.13
2023-03-06T08:45:55.377Z,85.67
2023-03-06T08:48:21.908Z,85.81
2023-03-06T08:50:48.520Z,85.51
2023-03-06T08:53:15.078Z,85.19
2023-03-06T08:55:41.820Z,85.86
2023-03-06T08:58:08.612Z,87.06
2023-03-06T09:00:36.574Z,87.19
2023-03-06T09:03:03.984Z,88.20
2023-03-06T09:05:30.513Z,87.99
2023-03-06T09:07:57.190Z,89.92
2023-03-06T09:10:25.235Z,89.86
2023-03-06T09:12:54.808Z,89.82
2023-03-06T09:15:22.812Z,89.39
2023-03-06T09:17:50.802Z,89.21
2023-03-06T09:20:18.532Z,89.05
2023-03-06T09:22:45.775Z,87.40
2023-03-06T09:25:20.256Z,87.66
2023-03-06T09:27:55.415Z,88.38
2023-03-06T09:30:28.483Z,87.21
2023-03-06T09:32:54.989Z,87.28
2023-03-06T09:35:21.444Z,87.16
2023-03-06T09:37:48.032Z,86.96
2023-03-06T09:40:53.033Z,87.14
2023-03-06T09:43:25.553Z,86.94
2023-03-06T09:45:52.556Z,86.45
2023-03-06T09:48:28.482Z,86.27
2023-03-06T09:51:02.786Z,86.22
2023-03-06T09:53:50.679Z,86.79
2023-03-06T09:56:23.089Z,86.52
2023-03-06T09:58:59.402Z,85.96
2023-03-06T10:01:34.928Z,85.40
2023-03-06T10:04:30.555Z,85.85
2023-03-06T10:07:04.384Z,86.09
2023-03-06T10:09:55.669Z,86.31
2023-03-06T10:12:24.881Z,85.36
2023-03-06T10:15:08.931Z,85.12
2023-03-06T10:17:41.738Z,84.86
2023-03-06T10:20:37.243Z,84.49
2023-03-06T10:23:35.329Z,83.76
2023-03-06T10:26:08.657Z,83.33
2023-03-06T10:28:37.596Z,83.70
2023-03-06T10:31:20.770Z,84.13
2023-03-06T10:34:06.705Z,84.32
2023-03-06T10:36:33.202Z,82.71
2023-03-06T10:38:59.951Z,82.62
2023-03-06T10:41:31.485Z,82.99
2023-03-06T10:44:19.798Z,82.39
2023-03-06T10:46:49.878Z,81.18
2023-03-06T10:49:27.667Z,81.58
2023-03-06T10:52:01.553Z,79.75
2023-03-06T10:54:30.928Z,79.41
2023-03-06T10:56:57.781Z,79.25
2023-03-06T10:59:28.237Z,78.86
2023-03-06T11:01:57.464Z,78.72
2023-03-06T11:04:26.959Z,77.96
2023-03-06T11:07:12.202Z,77.27
2023-03-06T11:09:38.847Z,76.12
2023-03-06T11:12:41.958Z,76.80
2023-03-06T11:15:14.438Z,74.45
2023-03-06T11:18:09.790Z,75.74
2023-03-06T11:20:52.549Z,74.75
2023-03-06T11:23:42.783Z,76.00
2023-03-06T11:26:15.242Z,75.04
2023-03-06T11:29:09.112Z,73.16
2023-03-06T11:31:42.826Z,72.75
2023-03-06T11:34:12.343Z,72.10
2023-03-06T11:36:47.267Z,72.96
2023-03-06T11:39:50.157Z,71.64
2023-03-06T11:42:34.284Z,72.70
2023-03-06T11:45:18.915Z,69.43
2023-03-06T11:47:58.979Z,68.71
2023-03-06T11:50:36.617Z,66.06
2023-03-06T11:53:11.162Z,68.50
2023-03-06T11:55:40.673Z,67.73
2023-03-06T11:58:25.775Z,66.18
2023-03-06T12:01:11.851Z,66.43
2023-03-06T12:04:04.367Z,66.51
2023-03-06T12:06:51.224Z,67.68
2023-03-06T12:09:33.193Z,66.88
2023-03-06T12:12:21.504Z,66.73
2023-03-06T12:14:51.009Z,65.83
2023-03-06T12:17:33.369Z,66.18
2023-03-06T12:20:27.264Z,66.75
2023-03-06T12:23:15.523Z,65.39
2023-03-06T12:26:11.284Z,66.43
2023-03-06T12:28:52.246Z,65.68
2023-03-06T12:31:59.278Z,65.12
2023-03-06T12:34:53.787Z,65.29
2023-03-06T12:37:31.310Z,65.88
2023-03-06T12:40:26.116Z,66.62
2023-03-06T12:43:20.674Z,65.58
2023-03-06T12:45:49.647Z,65.67
2023-03-06T12:48:23.088Z,65.14
2023-03-06T12:50:50.179Z,66.01
2023-03-06T12:53:27.600Z,65.19
2023-03-06T12:55:55.824Z,64.54
2023-03-06T12:58:28.431Z,65.46
2023-03-06T13:01:05.847Z,64.22
2023-03-06T13:03:44.797Z,64.03
2023-03-06T13:06:30.936Z,63.38
2023-03-06T13:09:07.467Z,62.90
2023-03-06T13:11:33.874Z,63.36
2023-03-06T13:14:00.388Z,63.82
2023-03-06T13:16:32.364Z,63.46
2023-03-06T13:19:24.210Z,64.02
2023-03-06T13:21:53.648Z,64.65
2023-03-06T13:24:22.081Z,64.08
2023-03-06T13:26:54.624Z,63.01
2023-03-06T13:29:36.390Z,63.16
2023-03-06T13:32:02.930Z,63.70
2023-03-06T13:34:34.036Z,63.34
2023-03-06T13:37:25.293Z,62.50
2023-03-06T13:39:54.758Z,63.56
2023-03-06T13:42:30.201Z,64.37
2023-03-06T13:45:05.919Z,64.18
2023-03-06T13:48:19.457Z,63.10
2023-03-06T13:50:48.136Z,63.12
2023-03-06T13:53:48.280Z,63.88
2023-03-06T13:56:33.247Z,62.51
2023-03-06T13:59:36.669Z,63.03
2023-03-06T14:02:37.016Z,62.41
2023-03-06T14:05:11.785Z,63.84
2023-03-06T14:07:46.562Z,63.96
2023-03-06T14:10:13.008Z,63.50
2023-03-06T14:12:59.771Z,63.40
2023-03-06T14:15:35.937Z,64.16
2023-03-06T14:18:07.152Z,64.05
2023-03-06T14:20:52.478Z,63.23
2023-03-06T14:23:21.686Z,63.67
2023-03-06T14:25:54.574Z,65.27
2023-03-06T14:28:26.476Z,65.31
2023-03-06T14:30:54.621Z,64.68
2023-03-06T14:33:26.588Z,64.41
2023-03-06T14:36:02.149Z,64.52
2023-03-06T14:38:33.368Z,65.18
2023-03-06T14:41:00.139Z,64.40
2023-03-06T14:43:27.905Z,64.52
2023-03-06T14:46:06.470Z,64.96
2023-03-06T14:48:45.647Z,65.53
2023-03-06T14:51:21.669Z,66.64
2023-03-06T14:53:50.243Z,66.35
2023-03-06T14:56:23.201Z,66.38
2023-03-06T14:59:00.493Z,67.30
2023-03-06T15:01:29.986Z,68.39
2023-03-06T15:04:00.169Z,68.55
2023-03-06T15:06:38.203Z,68.63
2023-03-06T15:09:13.662Z,69.11
2023-03-06T15:12:04.349Z,69.73
2023-03-06T15:14:40.917Z,70.28
2023-03-06T15:17:37.870Z,70.67
2023-03-06T15:20:09.755Z,71.01
2023-03-06T15:22:40.535Z,76.13
2023-03-06T15:25:16.005Z,75.52
2023-03-06T15:27:57.487Z,76.56
2023-03-06T15:30:31.311Z,78.14
2023-03-06T15:33:24.241Z,80.24
2023-03-06T15:35:58.879Z,82.40
2023-03-06T15:38:32.882Z,85.11
2023-03-06T15:41:01.447Z,86.08
2023-03-06T15:43:31.734Z,84.42
2023-03-06T15:46:00.871Z,87.62
2023-03-06T15:48:28.491Z,87.56
2023-03-06T15:50:55.129Z,85.04
2023-03-06T15:53:21.696Z,87.27
2023-03-06T15:55:49.012Z,87.48
2023-03-06T15:58:20.435Z,85.59
2023-03-06T16:00:47.022Z,87.25
2023-03-06T16:03:13.557Z,84.79
2023-03-06T16:05:40.198Z,87.78
2023-03-06T16:08:09.395Z,85.24
2023-03-06T16:10:39.279Z,87.50
2023-03-06T16:13:18.864Z,86.52
2023-03-06T16:15:50.228Z,86.67
2023-03-06T16:18:17.550Z,88.21
2023-03-06T16:20:44.888Z,88.38
2023-03-06T16:23:11.541Z,88.03
2023-03-06T16:25:40.589Z,87.16
2023-03-06T16:28:12.364Z,89.47
2023-03-06T16:30:38.776Z,89.41
2023-03-06T16:33:05.783Z,88.17
2023-03-06T16:35:32.378Z,88.76
2023-03-06T16:38:00.033Z,89.53
2023-03-06T16:40:29.597Z,90.43
2023-03-06T16:42:56.410Z,89.45
2023-03-06T16:45:24.452Z,87.31
2023-03-06T16:47:51.407Z,89.89
2023-03-06T16:50:30.683Z,89.35
2023-03-06T16:52:58.372Z,89.74
2023-03-06T16:55:26.582Z,89.59
2023-03-06T16:57:53.908Z,89.38
2023-03-06T17:00:21.390Z,87.97
2023-03-06T17:02:49.028Z,86.57
2023-03-06T17:05:15.850Z,88.64
2023-03-06T17:07:42.618Z,88.42
2023-03-06T17:10:12.180Z,89.42
2023-03-06T17:12:38.935Z,90.30
2023-03-06T17:15:06.450Z,89.49
2023-03-06T17:17:33.611Z,89.48
2023-03-06T17:20:00.258Z,88.87
2023-03-06T17:22:27.334Z,87.93
2023-03-06T17:24:53.925Z,89.15
2023-03-06T17:27:22.378Z,88.85
2023-03-06T17:29:48.917Z,87.42
2023-03-06T17:32:15.390Z,86.14
2023-03-06T17:34:42.195Z,86.31
2023-03-06T17:37:08.773Z,85.53
2023-03-06T17:39:37.936Z,85.97
2023-03-06T17:42:05.689Z,85.87
2023-03-06T17:44:33.244Z,85.01
2023-03-06T17:46:59.772Z,85.26
2023-03-06T17:49:26.312Z,84.45
2023-03-06T17:51:53.978Z,84.44
2023-03-06T17:54:20.719Z,85.47
2023-03-06T17:56:47.188Z,84.30
2023-03-06T17:59:14.178Z,84.80
2023-03-06T18:01:40.706Z,84.51
2023-03-06T18:04:07.632Z,85.34
2023-03-06T18:06:34.452Z,84.95
2023-03-06T18:09:01.369Z,84.46
2023-03-06T18:11:28.330Z,84.33
2023-03-06T18:13:54.997Z,84.21
2023-03-06T18:16:24.402Z,85.43
2023-03-06T18:18:52.640Z,84.27
2023-03-06T18:21:19.388Z,84.18
2023-03-06T18:23:45.875Z,84.33
2023-03-06T18:26:13.820Z,83.92
2023-03-06T18:28:42.597Z,83.69
2023-03-06T18:31:17.824Z,84.15
2023-03-06T18:33:44.880Z,83.44
2023-03-06T18:36:11.391Z,82.99
2023-03-06T18:38:39.599Z,83.43
2023-03-06T18:41:09.472Z,83.37
2023-03-06T18:43:37.068Z,82.82
2023-03-06T18:46:04.952Z,82.14
2023-03-06T18:48:31.547Z,82.54
2023-03-06T18:51:07.557Z,83.38
2023-03-06T18:53:34.718Z,83.67
2023-03-06T18:56:01.684Z,83.10
2023-03-06T18:58:28.177Z,82.96
2023-03-06T19:00:54.702Z,83.40
2023-03-06T19:03:21.252Z,83.58
2023-03-06T19:05:48.891Z,83.82
2023-03-06T19:08:16.805Z,84.19
2023-03-06T19:10:46.267Z,83.62
2023-03-06T19:13:13.761Z,84.29
2023-03-06T19:15:48.290Z,83.08
2023-03-06T19:18:17.680Z,82.72
2023-03-06T19:20:45.279Z,83.26
2023-03-06T19:23:11.797Z,82.39
2023-03-06T19:25:38.264Z,81.47
2023-03-06T19:28:05.571Z,81.54
2023-03-06T19:30:32.105Z,81.39
2023-03-06T19:32:58.747Z,81.26
2023-03-06T19:35:26.810Z,81.71
2023-03-06T19:37:53.562Z,81.15
2023-03-06T19:40:20.305Z,81.72
2023-03-06T19:42:46.901Z,82.66
2023-03-06T19:45:13.435Z,83.24
2023-03-06T19:47:39.929Z,83.18
2023-03-06T19:50:06.892Z,82.92
2023-03-06T19:52:36.400Z,83.27
2023-03-06T19:55:02.958Z,84.40
2023-03-06T19:57:29.740Z,84.48
2023-03-06T19:59:58.485Z,85.22
2023-03-06T20:02:27.155Z,86.03
2023-03-06T20:04:54.725Z,84.78
2023-03-06T20:07:21.614Z,84.29
2023-03-06T20:09:48.270Z,83.32
2023-03-06T20:12:15.557Z,83.54
2023-03-06T20:14:42.782Z,83.66
2023-03-06T20:17:09.247Z,84.11
2023-03-06T20:19:36.609Z,83.97
2023-03-06T20:22:03.470Z,83.13
2023-03-06T20:24:29.970Z,82.72
2023-03-06T20:26:57.675Z,82.23
2023-03-06T20:29:28.211Z,82.73
2023-03-06T20:31:57.174Z,82.96
2023-03-06T20:34:24.605Z,82.70
2023-03-06T20:36:51.445Z,81.21
2023-03-06T20:39:23.534Z,81.97
2023-03-06T20:41:50.051Z,81.75
2023-03-06T20:44:19.207Z,80.93
2023-03-06T20:46:46.128Z,80.33
2023-03-06T20:49:13.283Z,79.71
2023-03-06T20:51:41.448Z,80.22
2023-03-06T20:54:10.135Z,80.81
2023-03-06T20:56:39.503Z,81.88
2023-03-06T20:59:06.820Z,83.12
2023-03-06T21:01:35.977Z,82.45
2023-03-06T21:04:04.747Z,82.49
2023-03-06T21:06:32.358Z,81.99
2023-03-06T21:09:00.634Z,81.47
2023-03-06T21:11:28.486Z,82.35
2023-03-06T21:13:55.707Z,82.24
2023-03-06T21:16:24.578Z,81.86
2023-03-06T21:18:53.484Z,81.86
2023-03-06T21:21:24.108Z,82.36
2023-03-06T21:23:52.410Z,81.29
2023-03-06T21:26:22.116Z,81.66
2023-03-06T21:28:48.781Z,82.93
2023-03-06T21:31:18.018Z,83.37
2023-03-06T21:33:45.127Z,83.08
2023-03-06T21:36:11.943Z,84.26
2023-03-06T21:38:38.878Z,82.76
2023-03-06T21:41:12.815Z,81.63
2023-03-06T21:43:39.929Z,81.91
2023-03-06T21:46:06.668Z,82.46
2023-03-06T21:48:33.633Z,82.45
2023-03-06T21:51:15.849Z,82.34
2023-03-06T21:53:43.981Z,82.63
2023-03-06T21:56:12.864Z,83.21
2023-03-06T21:58:39.955Z,83.23
2023-03-06T22:01:11.735Z,81.70
2023-03-06T22:03:38.614Z,82.91
2023-03-06T22:06:10.427Z,81.57
2023-03-06T22:08:37.161Z,82.63
2023-03-06T22:11:08.209Z,81.80
2023-03-06T22:13:34.685Z,81.97
2023-03-06T22:16:01.347Z,82.50
2023-03-06T22:18:27.958Z,80.60
2023-03-06T22:20:54.773Z,82.22
2023-03-06T22:23:21.265Z,81.22
2023-03-06T22:25:47.828Z,81.18
2023-03-06T22:28:15.970Z,81.20
2023-03-06T22:30:42.829Z,80.22
2023-03-06T22:33:09.351Z,79.79
2023-03-06T22:35:35.903Z,79.49
2023-03-06T22:38:04.579Z,78.30
2023-03-06T22:40:32.468Z,80.13
2023-03-06T22:42:58.997Z,80.43
2023-03-06T22:45:25.515Z,80.69
2023-03-06T22:47:55.161Z,81.04
2023-03-06T22:50:23.828Z,81.01
2023-03-06T22:52:50.355Z,81.90
2023-03-06T22:55:16.948Z,80.69
2023-03-06T22:57:44.948Z,81.11
2023-03-06T23:00:12.107Z,80.88
2023-03-06T23:02:38.661Z,82.06
2023-03-06T23:05:05.464Z,81.18
2023-03-06T23:07:31.916Z,80.75
2023-03-06T23:10:01.109Z,80.44
2023-03-06T23:12:46.297Z,81.17
2023-03-06T23:15:31.985Z,79.89
2023-03-06T23:18:17.165Z,80.35
2023-03-06T23:21:14.144Z,80.09
2023-03-06T23:23:59.270Z,80.59
2023-03-06T23:26:28.992Z,81.85
2023-03-06T23:28:56.780Z,82.59
2023-03-06T23:31:28.637Z,84.44
2023-03-06T23:34:00.566Z,84.31
2023-03-06T23:36:28.246Z,84.72
2023-03-06T23:38:55.442Z,84.93
2023-03-06T23:41:23.640Z,84.99
2023-03-06T23:43:50.694Z,84.28
2023-03-06T23:46:17.781Z,83.75
2023-03-06T23:48:44.891Z,85.34
2023-03-06T23:51:17.014Z,85.80
2023-03-06T23:53:46.066Z,84.63
2023-03-06T23:56:13.272Z,85.23
2023-03-06T23:58:39.883Z,85.25
